Time;durP1;ratioP1;P1;durP2;ratioP2;P2;SDS_P1;SDS_P2;PMS_P1;PMS_P2;Temp;Humidity;BMP_temperature;BMP_pressure;BME280_temperature;BME280_humidity;BME280_pressure;Samples;Min_cycle;Max_cycle;Signal;HPM_P1;HPM_P2
2024/01/18 00:02:07;;;;;;;21.50;13.70;;;;;;;0.18;86.66;97779.66;112874;241;38769;-70
2024/01/18 00:04:41;;;;;;;19.30;12.70;;;;;;;0.20;86.97;97771.54;112881;241;38453;-70
2024/01/18 00:07:15;;;;;;;18.70;12.50;;;;;;;0.18;87.19;97774.34;112853;241;38251;-70
2024/01/18 00:09:49;;;;;;;17.10;11.60;;;;;;;0.14;87.30;97768.19;112867;241;38218;-71
2024/01/18 00:12:23;;;;;;;17.20;11.30;;;;;;;0.14;87.24;97752.92;112870;241;38669;-69
2024/01/18 00:14:57;;;;;;;17.50;11.60;;;;;;;0.15;87.37;97736.23;112862;241;40459;-69
2024/01/18 00:17:30;;;;;;;16.80;11.60;;;;;;;0.22;87.38;97731.02;112881;241;39784;-70
2024/01/18 00:20:05;;;;;;;18.20;11.80;;;;;;;0.28;87.45;97727.19;112842;241;38301;-70
2024/01/18 00:22:38;;;;;;;16.70;12.40;;;;;;;0.28;87.49;97724.09;112899;241;39201;-71
2024/01/18 00:25:13;;;;;;;17.70;11.80;;;;;;;0.28;87.60;97715.35;112828;241;38867;-71
2024/01/18 00:27:46;;;;;;;17.80;10.90;;;;;;;0.29;87.47;97710.15;112872;241;38671;-70
2024/01/18 00:30:20;;;;;;;17.10;11.10;;;;;;;0.34;87.56;97721.98;112885;241;38533;-70
2024/01/18 00:32:53;;;;;;;17.60;11.70;;;;;;;0.40;87.59;97732.55;112868;241;38623;-72
2024/01/18 00:35:27;;;;;;;17.30;12.70;;;;;;;0.44;87.57;97734.44;112861;241;38654;-72
2024/01/18 00:38:01;;;;;;;17.90;12.40;;;;;;;0.49;87.86;97723.42;112862;241;38850;-70
2024/01/18 00:40:34;;;;;;;15.60;11.30;;;;;;;0.48;87.90;97720.19;112849;241;38985;-71
2024/01/18 00:43:08;;;;;;;15.10;11.40;;;;;;;0.47;87.78;97724.51;112893;241;38740;-71
2024/01/18 00:45:42;;;;;;;18.70;11.30;;;;;;;0.51;87.62;97730.88;112874;241;38387;-71
2024/01/18 00:48:15;;;;;;;18.60;11.90;;;;;;;0.58;87.79;97738.84;112889;241;38740;-70
2024/01/18 00:50:49;;;;;;;20.40;11.40;;;;;;;0.63;87.72;97736.27;112877;241;39614;-71
2024/01/18 00:53:22;;;;;;;16.40;12.40;;;;;;;0.63;87.59;97735.38;112874;241;39613;-70
2024/01/18 00:55:56;;;;;;;18.10;12.30;;;;;;;0.63;87.71;97735.55;112837;241;41383;-70
2024/01/18 00:58:29;;;;;;;20.30;12.60;;;;;;;0.64;87.60;97730.02;112897;241;38555;-71
2024/01/18 01:01:04;;;;;;;16.90;11.00;;;;;;;0.66;87.88;97715.39;112878;241;39840;-71
2024/01/18 01:03:38;;;;;;;16.40;11.50;;;;;;;0.69;87.65;97716.45;112876;241;38645;-70
2024/01/18 01:06:13;;;;;;;17.30;11.60;;;;;;;0.71;87.68;97711.55;112864;241;40037;-70
2024/01/18 01:08:46;;;;;;;18.70;11.50;;;;;;;0.75;87.50;97709.86;112866;241;38358;-71
2024/01/18 01:11:21;;;;;;;17.80;11.50;;;;;;;0.76;87.72;97712.40;112854;241;39165;-71
2024/01/18 01:13:55;;;;;;;18.20;12.30;;;;;;;0.74;87.75;97715.04;112867;241;39879;-70
2024/01/18 01:16:29;;;;;;;17.70;10.90;;;;;;;0.76;87.72;97716.48;112899;241;38221;-70
2024/01/18 01:19:02;;;;;;;17.90;12.40;;;;;;;0.82;87.80;97715.75;112888;241;38385;-69
2024/01/18 01:21:36;;;;;;;18.80;12.10;;;;;;;0.91;87.99;97714.70;112866;241;38382;-70
2024/01/18 01:24:10;;;;;;;16.10;11.90;;;;;;;0.94;87.68;97708.89;112856;241;38570;-71
2024/01/18 01:26:44;;;;;;;19.60;13.40;;;;;;;0.96;87.73;97707.63;112877;241;38285;-70
2024/01/18 01:29:18;;;;;;;17.90;12.70;;;;;;;0.97;87.73;97711.68;112862;241;39004;-71
2024/01/18 01:31:52;;;;;;;16.80;12.70;;;;;;;0.94;87.52;97706.66;112836;241;39934;-71
2024/01/18 01:34:26;;;;;;;17.40;13.00;;;;;;;0.95;87.43;97706.28;112856;241;38539;-71
2024/01/18 01:36:59;;;;;;;17.00;11.60;;;;;;;0.98;87.56;97708.20;112891;241;38849;-71
2024/01/18 01:39:33;;;;;;;18.60;11.60;;;;;;;1.04;87.74;97709.49;112882;241;38565;-71
2024/01/18 01:42:09;;;;;;;17.50;11.70;;;;;;;1.06;87.58;97703.60;112888;241;38565;-71
2024/01/18 01:44:42;;;;;;;18.40;12.20;;;;;;;1.07;87.83;97701.14;112899;241;38763;-71
2024/01/18 01:47:16;;;;;;;18.70;12.50;;;;;;;1.06;87.76;97695.02;112855;241;38426;-70
2024/01/18 01:49:50;;;;;;;21.50;13.40;;;;;;;1.05;87.92;97690.73;112875;241;38723;-71
2024/01/18 01:52:24;;;;;;;16.00;11.10;;;;;;;1.08;87.84;97687.73;112843;241;39497;-70
2024/01/18 01:54:57;;;;;;;17.90;11.30;;;;;;;1.12;87.89;97683.77;112852;241;38690;-70
2024/01/18 01:57:31;;;;;;;16.40;11.90;;;;;;;1.17;87.76;97687.13;112891;241;38807;-70
2024/01/18 02:00:05;;;;;;;17.40;11.70;;;;;;;1.22;87.70;97689.65;112885;241;38993;-72
2024/01/18 02:02:40;;;;;;;15.30;11.30;;;;;;;1.23;87.57;97690.67;112868;241;39005;-71
2024/01/18 02:05:14;;;;;;;18.10;12.40;;;;;;;1.24;87.70;97684.27;112884;241;38270;-72
2024/01/18 02:07:47;;;;;;;19.30;12.30;;;;;;;1.22;87.45;97689.16;112850;241;38514;-71
2024/01/18 02:10:21;;;;;;;16.50;10.40;;;;;;;1.24;87.59;97681.52;112883;241;39060;-72
2024/01/18 02:12:55;;;;;;;18.30;11.80;;;;;;;1.27;87.46;97675.05;112918;241;38399;-69
2024/01/18 02:15:28;;;;;;;19.60;12.80;;;;;;;1.30;87.39;97676.98;112836;241;40209;-69
2024/01/18 02:18:02;;;;;;;18.90;12.70;;;;;;;1.33;87.36;97674.45;112856;241;38320;-69
2024/01/18 02:20:36;;;;;;;19.90;12.50;;;;;;;1.36;87.48;97671.23;112836;241;39271;-69
2024/01/18 02:23:12;;;;;;;17.90;12.00;;;;;;;1.38;87.58;97668.89;112874;241;39337;-70
2024/01/18 02:25:50;;;;;;;17.30;11.20;;;;;;;1.37;87.36;97667.55;112877;241;38291;-70
2024/01/18 02:28:24;;;;;;;15.70;10.90;;;;;;;1.35;87.17;97666.11;112889;241;38563;-70
2024/01/18 02:30:58;;;;;;;15.60;10.20;;;;;;;1.37;87.38;97669.80;112863;241;38519;-70
2024/01/18 02:33:32;;;;;;;16.20;10.60;;;;;;;1.42;87.49;97670.25;112843;241;39511;-69
2024/01/18 02:36:07;;;;;;;14.90;10.20;;;;;;;1.45;87.51;97665.98;112857;241;39491;-69
2024/01/18 02:38:40;;;;;;;18.60;11.50;;;;;;;1.47;87.49;97661.77;112849;241;38799;-69
2024/01/18 02:41:14;;;;;;;15.50;10.90;;;;;;;1.48;87.52;97659.01;112865;241;39338;-69
2024/01/18 02:43:48;;;;;;;16.70;10.70;;;;;;;1.45;87.35;97661.54;112863;241;38539;-69
2024/01/18 02:46:28;;;;;;;13.40;9.70;;;;;;;1.43;87.43;97660.92;112916;241;38712;-69
2024/01/18 02:49:02;;;;;;;15.20;10.00;;;;;;;1.43;87.37;97666.77;112879;241;39733;-70
2024/01/18 02:51:36;;;;;;;18.40;10.10;;;;;;;1.46;87.43;97667.84;112890;241;38562;-70
2024/01/18 02:54:10;;;;;;;16.10;11.20;;;;;;;1.49;87.66;97669.45;112837;241;39125;-71
2024/01/18 02:56:44;;;;;;;17.30;11.50;;;;;;;1.48;87.51;97670.84;112846;241;38994;-70
2024/01/18 02:59:18;;;;;;;16.40;11.50;;;;;;;1.49;87.73;97662.38;112861;241;38952;-70
2024/01/18 03:01:52;;;;;;;15.50;11.30;;;;;;;1.48;87.71;97659.17;112917;241;39123;-69
2024/01/18 03:04:27;;;;;;;18.50;11.40;;;;;;;1.46;87.61;97666.77;112983;241;38275;-69
2024/01/18 03:07:00;;;;;;;15.40;10.50;;;;;;;1.47;87.57;97671.90;113021;241;38765;-69
2024/01/18 03:09:35;;;;;;;16.90;11.50;;;;;;;1.50;87.89;97671.59;113005;241;40249;-69
2024/01/18 03:12:09;;;;;;;17.60;11.30;;;;;;;1.56;88.03;97671.70;113035;241;38342;-71
2024/01/18 03:14:42;;;;;;;17.90;12.30;;;;;;;1.58;87.95;97675.38;112968;241;38555;-71
2024/01/18 03:17:16;;;;;;;17.00;12.00;;;;;;;1.54;87.68;97684.64;113006;241;38639;-71
2024/01/18 03:19:50;;;;;;;17.30;11.60;;;;;;;1.50;87.80;97668.00;112886;241;38293;-72
2024/01/18 03:22:24;;;;;;;15.00;10.50;;;;;;;1.49;87.62;97669.43;112762;241;175135;-70
2024/01/18 03:24:57;;;;;;;13.00;10.00;;;;;;;1.49;87.71;97669.45;112841;241;40409;-70
2024/01/18 03:27:31;;;;;;;16.90;11.00;;;;;;;1.51;87.86;97676.38;112909;241;38698;-69
2024/01/18 03:30:07;;;;;;;16.10;11.40;;;;;;;1.54;88.00;97679.68;112888;241;38882;-69
2024/01/18 03:32:41;;;;;;;16.10;11.80;;;;;;;1.57;88.20;97684.71;112889;241;39237;-70
2024/01/18 03:35:15;;;;;;;19.60;12.90;;;;;;;1.59;88.19;97685.50;112156;241;912829;-70
2024/01/18 03:37:48;;;;;;;16.50;11.60;;;;;;;1.56;87.86;97689.38;112889;241;39529;-70
2024/01/18 03:40:22;;;;;;;15.80;10.70;;;;;;;1.57;87.90;97701.20;112890;241;38504;-70
2024/01/18 03:42:56;;;;;;;17.10;11.50;;;;;;;1.59;87.93;97701.63;112861;241;39507;-69
2024/01/18 03:45:30;;;;;;;18.70;12.00;;;;;;;1.63;88.12;97704.17;112856;241;39524;-69
2024/01/18 03:48:04;;;;;;;17.80;12.10;;;;;;;1.68;88.23;97708.09;112847;241;39132;-70
2024/01/18 03:50:38;;;;;;;16.30;12.20;;;;;;;1.68;88.06;97710.85;112874;241;38341;-70
2024/01/18 03:53:12;;;;;;;16.60;12.90;;;;;;;1.68;88.34;97706.08;112889;241;38963;-72
2024/01/18 03:55:46;;;;;;;18.00;12.00;;;;;;;1.65;88.17;97707.02;112884;241;39168;-71
2024/01/18 03:58:20;;;;;;;16.10;11.40;;;;;;;1.64;88.07;97708.48;112874;241;39593;-70
2024/01/18 04:00:54;;;;;;;18.50;11.60;;;;;;;1.65;88.12;97710.29;112898;241;39624;-70
2024/01/18 04:03:27;;;;;;;18.30;12.50;;;;;;;1.71;88.25;97713.12;112890;241;38530;-69
2024/01/18 04:06:01;;;;;;;17.50;12.70;;;;;;;1.73;88.26;97709.08;112871;241;38330;-69
2024/01/18 04:08:35;;;;;;;19.70;13.70;;;;;;;1.75;88.32;97711.72;112873;241;39562;-72
2024/01/18 04:11:08;;;;;;;22.10;13.80;;;;;;;1.71;88.19;97709.84;112885;241;38528;-72
2024/01/18 04:14:02;;;;;;;19.20;13.40;;;;;;;1.68;88.17;97707.07;112851;241;38385;-71
2024/01/18 04:16:36;;;;;;;18.30;12.90;;;;;;;1.67;88.46;97712.91;112912;241;39203;-70
2024/01/18 04:19:09;;;;;;;20.70;12.70;;;;;;;1.71;88.65;97716.36;112887;241;38306;-70
2024/01/18 04:21:43;;;;;;;19.50;13.60;;;;;;;1.75;88.75;97718.25;112875;241;39362;-69
2024/01/18 04:24:17;;;;;;;21.40;14.10;;;;;;;1.80;88.92;97718.73;112872;241;38401;-69
2024/01/18 04:26:51;;;;;;;24.70;15.60;;;;;;;1.83;89.18;97717.56;112875;241;38345;-69
2024/01/18 04:29:24;;;;;;;21.90;15.00;;;;;;;1.84;89.14;97718.52;112864;241;38619;-69
2024/01/18 04:31:58;;;;;;;23.20;15.50;;;;;;;1.84;88.97;97722.15;112856;241;38757;-70
2024/01/18 04:34:32;;;;;;;25.90;16.90;;;;;;;1.81;89.03;97727.27;112750;241;175199;-71
2024/01/18 04:37:06;;;;;;;24.40;16.50;;;;;;;1.84;89.62;97730.95;112845;241;38259;-70
2024/01/18 04:39:40;;;;;;;25.10;17.40;;;;;;;1.91;89.88;97730.96;112909;241;38252;-69
2024/01/18 04:42:14;;;;;;;27.80;18.10;;;;;;;1.96;89.88;97734.84;112921;241;39199;-71
2024/01/18 04:44:48;;;;;;;29.70;20.10;;;;;;;1.99;89.92;97742.77;112870;241;40111;-71
2024/01/18 04:47:22;;;;;;;26.50;18.10;;;;;;;2.02;90.04;97746.26;112884;241;39896;-69
2024/01/18 04:49:57;;;;;;;27.60;18.30;;;;;;;2.03;89.98;97746.55;112858;241;38262;-69
2024/01/18 04:52:31;;;;;;;23.90;16.90;;;;;;;2.05;89.79;97750.57;112870;241;38803;-70
2024/01/18 04:55:05;;;;;;;26.90;17.70;;;;;;;2.07;89.64;97750.50;112853;241;38674;-70
2024/01/18 04:57:40;;;;;;;28.40;18.30;;;;;;;2.12;89.67;97746.69;112894;241;38817;-70
2024/01/18 05:00:15;;;;;;;31.10;19.90;;;;;;;2.16;89.84;97748.22;112893;241;38263;-70
2024/01/18 05:02:49;;;;;;;28.30;20.20;;;;;;;2.19;89.95;97752.36;112872;241;39722;-70
2024/01/18 05:05:23;;;;;;;28.70;20.00;;;;;;;2.21;89.92;97755.02;112620;241;306324;-70
2024/01/18 05:07:57;;;;;;;29.60;19.70;;;;;;;2.20;89.47;97758.70;112853;241;38434;-71
2024/01/18 05:10:31;;;;;;;27.80;19.00;;;;;;;2.19;89.45;97758.91;112849;241;39460;-71
2024/01/18 05:13:05;;;;;;;27.60;17.90;;;;;;;2.20;89.53;97760.73;112862;241;38834;-69
2024/01/18 05:15:38;;;;;;;25.70;19.00;;;;;;;2.24;89.62;97764.00;112841;241;38445;-69
2024/01/18 05:18:13;;;;;;;28.40;20.30;;;;;;;2.27;89.66;97770.90;112853;241;38516;-70
2024/01/18 05:20:48;;;;;;;28.20;20.30;;;;;;;2.28;89.48;97769.83;112814;241;38741;-71
2024/01/18 05:23:21;;;;;;;31.70;21.10;;;;;;;2.27;89.54;97775.89;112894;241;38405;-70
2024/01/18 05:25:55;;;;;;;33.10;21.70;;;;;;;2.25;89.60;97776.67;112851;241;38450;-70
2024/01/18 05:28:28;;;;;;;30.20;20.00;;;;;;;2.25;89.55;97783.23;112883;241;38559;-70
2024/01/18 05:31:02;;;;;;;33.60;20.60;;;;;;;2.23;89.19;97782.83;112874;241;38800;-69
2024/01/18 05:33:36;;;;;;;29.50;20.60;;;;;;;2.22;89.13;97784.75;112890;241;39188;-70
2024/01/18 05:36:10;;;;;;;31.50;21.40;;;;;;;2.21;89.02;97786.16;112918;241;38450;-71
2024/01/18 05:38:46;;;;;;;32.90;22.60;;;;;;;2.19;88.91;97785.05;112923;241;38238;-70
2024/01/18 05:41:20;;;;;;;30.50;22.40;;;;;;;2.19;89.10;97791.91;112930;241;38436;-69
2024/01/18 05:43:53;;;;;;;31.70;21.60;;;;;;;2.17;89.04;97797.02;112863;241;38511;-70
2024/01/18 05:46:28;;;;;;;32.90;21.40;;;;;;;2.15;89.02;97802.07;112896;241;38718;-71
2024/01/18 05:49:03;;;;;;;31.90;21.80;;;;;;;2.15;88.96;97808.26;112897;241;39975;-69
2024/01/18 05:51:37;;;;;;;34.60;22.90;;;;;;;2.19;89.20;97813.57;112892;241;38294;-70
2024/01/18 05:54:11;;;;;;;36.80;23.90;;;;;;;2.23;89.13;97819.26;112865;241;38397;-70
2024/01/18 05:56:47;;;;;;;36.10;23.80;;;;;;;2.24;89.13;97819.89;112860;241;38266;-70
2024/01/18 05:59:21;;;;;;;37.10;25.00;;;;;;;2.23;89.12;97821.50;112887;241;38551;-70
2024/01/18 06:02:16;;;;;;;37.00;24.50;;;;;;;2.23;89.09;97823.92;112907;241;38501;-70
2024/01/18 06:05:00;;;;;;;38.10;23.20;;;;;;;2.22;88.87;97828.10;112907;241;39406;-69
2024/01/18 06:07:44;;;;;;;33.00;23.00;;;;;;;2.20;88.70;97834.02;112917;241;38249;-70
2024/01/18 06:10:23;;;;;;;34.80;22.40;;;;;;;2.19;88.59;97838.55;112911;241;38354;-69
2024/01/18 06:12:56;;;;;;;35.00;23.80;;;;;;;2.19;88.65;97839.59;112865;241;38350;-71
2024/01/18 06:15:31;;;;;;;44.20;25.80;;;;;;;2.20;88.79;97844.69;112871;241;38254;-70
2024/01/18 06:18:06;;;;;;;39.90;25.80;;;;;;;2.21;88.91;97843.26;112903;241;38531;-70
2024/01/18 06:20:40;;;;;;;38.90;25.20;;;;;;;2.20;88.89;97847.11;112867;241;38734;-70
2024/01/18 06:23:13;;;;;;;38.50;24.80;;;;;;;2.20;88.89;97854.29;112859;241;38367;-70
2024/01/18 06:25:47;;;;;;;37.70;24.80;;;;;;;2.22;88.74;97864.73;112914;241;38899;-70
2024/01/18 06:28:21;;;;;;;36.90;24.70;;;;;;;2.23;88.77;97864.83;112904;241;38713;-69
2024/01/18 06:30:55;;;;;;;42.00;27.90;;;;;;;2.24;88.75;97869.26;112877;241;38715;-69
2024/01/18 06:33:29;;;;;;;40.40;26.90;;;;;;;2.22;88.56;97873.33;112884;241;38459;-70
2024/01/18 06:36:02;;;;;;;38.70;27.20;;;;;;;2.19;88.36;97879.79;112843;241;38315;-71
2024/01/18 06:38:36;;;;;;;42.40;27.30;;;;;;;2.16;88.33;97885.09;112830;241;40142;-69
2024/01/18 06:41:11;;;;;;;37.80;25.40;;;;;;;2.14;88.47;97888.98;112865;241;39011;-69
2024/01/18 06:43:46;;;;;;;38.40;25.40;;;;;;;2.15;88.49;97891.66;112888;241;38236;-69
2024/01/18 06:46:21;;;;;;;38.30;26.50;;;;;;;2.17;88.49;97892.79;112827;241;40141;-70
2024/01/18 06:48:57;;;;;;;40.60;26.80;;;;;;;2.16;88.31;97885.63;112878;241;38540;-69
2024/01/18 06:51:30;;;;;;;40.00;27.20;;;;;;;2.16;88.50;97879.96;112891;241;38297;-70
2024/01/18 06:54:04;;;;;;;44.00;29.10;;;;;;;2.16;88.40;97882.86;112873;241;39307;-69
2024/01/18 06:56:38;;;;;;;44.00;28.00;;;;;;;2.11;88.32;97888.59;112875;241;38283;-70
2024/01/18 06:59:12;;;;;;;40.00;26.60;;;;;;;2.11;88.46;97891.36;112743;241;189614;-71
2024/01/18 07:01:46;;;;;;;41.50;26.40;;;;;;;2.08;88.31;97893.20;112904;241;38879;-70
2024/01/18 07:04:20;;;;;;;41.70;27.60;;;;;;;2.09;88.31;97893.70;112850;241;38409;-71
2024/01/18 07:06:53;;;;;;;48.60;31.00;;;;;;;2.11;88.33;97898.39;112856;241;38505;-70
2024/01/18 07:09:27;;;;;;;46.10;30.60;;;;;;;2.09;88.23;97901.91;112754;241;175120;-70
2024/01/18 07:12:01;;;;;;;50.60;32.20;;;;;;;2.03;88.24;97907.85;112889;241;39772;-69
2024/01/18 07:14:35;;;;;;;47.40;30.10;;;;;;;2.01;88.41;97912.55;112895;241;39920;-69
2024/01/18 07:17:10;;;;;;;46.40;28.60;;;;;;;1.98;88.29;97917.16;112847;241;39711;-69
2024/01/18 07:19:44;;;;;;;50.00;29.80;;;;;;;1.96;88.11;97918.97;112886;241;38709;-69
2024/01/18 07:22:18;;;;;;;47.80;30.40;;;;;;;1.96;88.21;97920.52;112883;241;38990;-70
2024/01/18 07:24:52;;;;;;;52.60;31.00;;;;;;;1.97;88.44;97922.88;112852;241;38431;-70
2024/01/18 07:27:26;;;;;;;48.90;30.30;;;;;;;2.00;88.49;97930.85;112855;241;38554;-70
2024/01/18 07:30:00;;;;;;;52.10;32.70;;;;;;;2.01;88.56;97933.70;112861;241;38343;-70
2024/01/18 07:32:34;;;;;;;53.40;32.20;;;;;;;2.01;88.57;97938.70;112852;241;38910;-70
2024/01/18 07:35:08;;;;;;;50.10;30.10;;;;;;;2.02;88.60;97932.83;112908;241;39752;-72
2024/01/18 07:37:42;;;;;;;51.10;30.60;;;;;;;2.06;88.65;97930.23;112835;241;39013;-70
2024/01/18 07:40:16;;;;;;;54.50;32.00;;;;;;;2.10;88.51;97937.12;112863;241;38616;-70
2024/01/18 07:42:50;;;;;;;53.90;31.70;;;;;;;2.11;88.44;97946.02;112885;241;39090;-70
2024/01/18 07:45:24;;;;;;;53.40;32.30;;;;;;;2.13;88.52;97949.91;112847;241;39723;-70
2024/01/18 07:47:58;;;;;;;57.80;34.10;;;;;;;2.12;88.34;97954.94;112905;241;38471;-70
2024/01/18 07:50:31;;;;;;;53.80;32.20;;;;;;;2.10;88.34;97965.52;112889;241;38265;-70
2024/01/18 07:53:07;;;;;;;49.40;31.00;;;;;;;2.10;88.26;97971.21;112909;241;38898;-70
2024/01/18 07:55:42;;;;;;;53.60;32.20;;;;;;;2.12;88.43;97975.59;112931;241;38251;-72
2024/01/18 07:58:17;;;;;;;52.00;32.80;;;;;;;2.18;88.39;97981.16;112878;241;38676;-70
2024/01/18 08:00:52;;;;;;;51.80;33.40;;;;;;;2.21;88.57;97982.93;112845;241;39045;-70
2024/01/18 08:03:27;;;;;;;55.00;34.10;;;;;;;2.25;88.54;97984.65;112862;241;38801;-70
2024/01/18 08:06:01;;;;;;;54.60;34.60;;;;;;;2.25;88.33;97986.89;112875;241;39061;-71
2024/01/18 08:08:35;;;;;;;54.70;35.50;;;;;;;2.22;88.21;97983.91;112864;241;38719;-71
2024/01/18 08:11:11;;;;;;;55.80;34.00;;;;;;;2.19;88.13;97984.75;112854;241;38552;-71
2024/01/18 08:13:45;;;;;;;53.10;32.20;;;;;;;2.18;88.11;97986.84;112878;241;40073;-70
2024/01/18 08:16:20;;;;;;;49.30;31.30;;;;;;;2.19;88.17;97984.73;112871;241;38482;-70
2024/01/18 08:18:54;;;;;;;50.60;30.50;;;;;;;2.23;88.23;97984.22;112877;241;38276;-72
2024/01/18 08:21:29;;;;;;;52.20;32.60;;;;;;;2.24;88.10;97992.09;112867;241;39716;-72
2024/01/18 08:24:03;;;;;;;54.60;33.20;;;;;;;2.27;88.27;97996.29;112855;241;38933;-71
2024/01/18 08:26:37;;;;;;;54.60;34.00;;;;;;;2.24;87.99;98007.77;112875;241;39914;-71
2024/01/18 08:29:11;;;;;;;58.60;34.90;;;;;;;2.20;88.07;98015.12;112891;241;39342;-71
2024/01/18 08:31:45;;;;;;;53.90;32.00;;;;;;;2.19;88.29;98021.70;112850;241;39134;-70
2024/01/18 08:34:20;;;;;;;52.90;31.90;;;;;;;2.19;88.05;98026.69;112870;241;38359;-70
2024/01/18 08:36:54;;;;;;;50.80;31.00;;;;;;;2.21;88.18;98029.03;112902;241;39771;-70
2024/01/18 08:39:29;;;;;;;52.50;32.40;;;;;;;2.24;88.19;98024.23;112888;241;38253;-70
2024/01/18 08:42:02;;;;;;;52.60;32.30;;;;;;;2.31;88.51;98033.59;112893;241;38240;-70
2024/01/18 08:44:36;;;;;;;52.10;33.10;;;;;;;2.39;88.51;98039.95;112921;241;39753;-71
2024/01/18 08:47:10;;;;;;;54.10;32.70;;;;;;;2.36;87.93;98045.76;112895;241;38932;-70
2024/01/18 08:49:44;;;;;;;48.90;31.70;;;;;;;2.31;87.92;98055.41;112865;241;40126;-70
2024/01/18 08:52:19;;;;;;;51.90;30.90;;;;;;;2.29;87.85;98058.27;112885;241;39015;-72
2024/01/18 08:54:53;;;;;;;52.70;30.10;;;;;;;2.27;87.66;98058.89;112872;241;39513;-71
2024/01/18 08:57:28;;;;;;;49.10;29.10;;;;;;;2.27;87.64;98064.06;112902;241;39515;-71
2024/01/18 09:00:02;;;;;;;51.50;31.00;;;;;;;2.30;87.66;98068.38;112733;241;175068;-71
2024/01/18 09:02:37;;;;;;;51.40;31.70;;;;;;;2.29;87.45;98069.27;112875;241;38449;-70
2024/01/18 09:05:12;;;;;;;56.10;33.30;;;;;;;2.29;87.51;98073.27;112915;241;39426;-69
2024/01/18 09:07:46;;;;;;;57.40;32.20;;;;;;;2.26;87.37;98080.92;112927;241;38788;-71
2024/01/18 09:10:20;;;;;;;57.30;33.90;;;;;;;2.22;87.43;98077.48;112891;241;40002;-72
2024/01/18 09:12:55;;;;;;;55.70;31.60;;;;;;;2.19;87.36;98076.08;112900;241;38480;-71
2024/01/18 09:15:29;;;;;;;54.20;30.70;;;;;;;2.15;87.12;98080.37;112860;241;38840;-71
2024/01/18 09:18:03;;;;;;;49.60;29.70;;;;;;;2.13;87.17;98080.45;112894;241;38716;-72
2024/01/18 09:20:37;;;;;;;52.30;31.90;;;;;;;2.16;87.22;98084.79;112877;241;38243;-72
2024/01/18 09:23:11;;;;;;;57.80;33.70;;;;;;;2.12;86.96;98089.27;112878;241;38696;-71
2024/01/18 09:25:45;;;;;;;58.50;33.30;;;;;;;2.10;87.10;98089.17;112890;241;39439;-71
2024/01/18 09:28:21;;;;;;;56.10;33.30;;;;;;;2.11;87.25;98091.68;112844;241;39153;-71
2024/01/18 09:30:57;;;;;;;61.60;35.80;;;;;;;2.09;87.23;98093.16;112858;241;38554;-72
2024/01/18 09:33:33;;;;;;;59.40;33.20;;;;;;;2.10;87.39;98093.46;112850;241;38723;-71
2024/01/18 09:36:08;;;;;;;55.00;31.80;;;;;;;2.14;87.66;98095.70;112867;241;38299;-71
2024/01/18 09:38:42;;;;;;;51.10;31.00;;;;;;;2.21;87.48;98096.81;112874;241;38402;-70
2024/01/18 09:41:16;;;;;;;56.10;34.30;;;;;;;2.23;87.25;98093.27;112917;241;38506;-70
2024/01/18 09:43:52;;;;;;;55.10;32.70;;;;;;;2.27;87.52;98093.77;112902;241;39861;-70
2024/01/18 09:46:27;;;;;;;58.40;33.40;;;;;;;2.33;87.44;98096.14;112892;241;39507;-70
2024/01/18 09:49:01;;;;;;;57.30;33.20;;;;;;;2.37;87.17;98093.91;112745;241;175046;-72
2024/01/18 09:51:34;;;;;;;58.20;33.60;;;;;;;2.37;87.07;98091.16;112827;241;38478;-71
2024/01/18 09:54:09;;;;;;;59.10;34.80;;;;;;;2.38;87.10;98092.99;112869;241;38100;-70
2024/01/18 09:56:47;;;;;;;59.50;35.30;;;;;;;2.42;87.03;98097.31;112883;241;38361;-71
2024/01/18 09:59:24;;;;;;;53.70;32.80;;;;;;;2.47;87.03;98102.95;112875;241;38256;-71
2024/01/18 10:01:58;;;;;;;56.40;33.60;;;;;;;2.57;87.15;98096.15;112907;241;38615;-73
2024/01/18 10:04:32;;;;;;;58.20;34.60;;;;;;;2.67;87.05;98089.23;112900;241;38273;-74
2024/01/18 10:07:06;;;;;;;61.40;35.40;;;;;;;2.79;87.19;98087.65;112855;241;38410;-71
2024/01/18 10:09:41;;;;;;;58.00;34.40;;;;;;;2.91;87.11;98091.12;112861;241;39756;-71
2024/01/18 10:12:15;;;;;;;52.80;32.70;;;;;;;3.00;86.65;98092.41;112858;241;40042;-71
2024/01/18 10:14:49;;;;;;;54.80;33.30;;;;;;;3.02;85.91;98099.59;112837;241;38720;-72
2024/01/18 10:17:27;;;;;;;53.10;33.60;;;;;;;2.98;85.40;98099.91;112880;241;39137;-70
2024/01/18 10:20:01;;;;;;;54.30;33.50;;;;;;;2.92;84.83;98096.06;112868;241;39170;-70
2024/01/18 10:22:35;;;;;;;50.90;30.60;;;;;;;2.85;84.71;98096.01;112878;241;38407;-71
2024/01/18 10:25:14;;;;;;;50.90;32.00;;;;;;;2.78;84.17;98099.06;112900;241;38452;-71
2024/01/18 10:27:48;;;;;;;51.80;30.20;;;;;;;2.71;83.90;98095.89;112861;241;38314;-73
2024/01/18 10:30:22;;;;;;;50.00;31.40;;;;;;;2.67;84.19;98084.56;112875;241;38295;-72
2024/01/18 10:32:56;;;;;;;49.10;30.90;;;;;;;2.69;84.22;98085.85;112742;241;172451;-70
2024/01/18 10:35:29;;;;;;;47.50;28.60;;;;;;;2.63;83.85;98103.84;112884;241;38230;-70
2024/01/18 10:38:07;;;;;;;49.40;29.40;;;;;;;2.54;83.29;98116.77;112859;241;40392;-70
2024/01/18 10:40:41;;;;;;;48.50;28.50;;;;;;;2.50;83.83;98125.55;112890;241;38787;-72
2024/01/18 10:43:16;;;;;;;46.70;28.50;;;;;;;2.51;84.08;98138.23;112908;241;38366;-72
2024/01/18 10:45:50;;;;;;;45.80;29.10;;;;;;;2.51;83.77;98151.13;112856;241;38361;-72
2024/01/18 10:48:24;;;;;;;48.10;28.60;;;;;;;2.45;83.23;98157.91;112880;241;38234;-70
2024/01/18 10:50:59;;;;;;;48.60;30.20;;;;;;;2.39;83.33;98165.38;112871;241;38631;-70
2024/01/18 10:53:37;;;;;;;48.60;31.20;;;;;;;2.37;83.56;98172.55;112893;241;38287;-71
2024/01/18 10:56:22;;;;;;;52.60;33.30;;;;;;;2.33;83.56;98175.80;112852;241;38447;-72
2024/01/18 10:58:57;;;;;;;55.10;34.40;;;;;;;2.29;83.44;98177.98;112867;241;38294;-70
2024/01/18 11:01:31;;;;;;;54.10;32.70;;;;;;;2.25;83.67;98181.60;112887;241;38253;-70
2024/01/18 11:04:05;;;;;;;51.20;31.70;;;;;;;2.26;83.66;98184.81;112899;241;40105;-70
2024/01/18 11:06:40;;;;;;;51.70;34.00;;;;;;;2.25;83.34;98194.17;112931;241;38799;-70
2024/01/18 11:09:15;;;;;;;55.80;35.30;;;;;;;2.25;83.23;98196.39;112890;241;39511;-70
2024/01/18 11:11:49;;;;;;;60.50;38.30;;;;;;;2.23;83.07;98194.42;112855;241;39872;-70
2024/01/18 11:14:31;;;;;;;69.40;41.90;;;;;;;2.16;82.73;98194.88;112857;241;39743;-71
2024/01/18 11:17:16;;;;;;;60.10;37.60;;;;;;;2.10;83.13;98202.49;112853;241;38699;-70
2024/01/18 11:19:50;;;;;;;58.30;35.80;;;;;;;2.01;82.75;98196.80;112854;241;39521;-70
2024/01/18 11:22:31;;;;;;;57.80;35.20;;;;;;;1.90;82.69;98183.84;112900;241;39514;-72
2024/01/18 11:25:11;;;;;;;58.90;34.70;;;;;;;1.81;82.60;98189.67;112881;241;38384;-72
2024/01/18 11:27:45;;;;;;;56.80;34.20;;;;;;;1.76;82.78;98196.02;112913;241;38449;-70
2024/01/18 11:30:37;;;;;;;55.50;36.50;;;;;;;1.72;82.45;98196.88;112905;241;38236;-70
2024/01/18 11:33:11;;;;;;;56.90;35.30;;;;;;;1.69;82.70;98198.36;112906;241;38164;-71
2024/01/18 11:35:46;;;;;;;62.00;38.90;;;;;;;1.65;82.83;98202.80;112851;241;39467;-71
2024/01/18 11:38:24;;;;;;;62.50;38.50;;;;;;;1.66;83.13;98206.73;112826;241;38602;-71
2024/01/18 11:41:04;;;;;;;62.10;38.30;;;;;;;1.66;83.26;98210.83;112895;241;39775;-71
2024/01/18 11:44:01;;;;;;;62.40;39.20;;;;;;;1.62;82.84;98212.20;112875;241;39635;-70
2024/01/18 11:46:41;;;;;;;68.70;39.80;;;;;;;1.57;82.89;98220.46;112869;241;38304;-70
2024/01/18 11:49:24;;;;;;;57.90;37.40;;;;;;;1.57;83.41;98225.95;112880;241;40076;-70
2024/01/18 11:52:04;;;;;;;61.80;38.10;;;;;;;1.62;83.42;98232.33;112886;241;38255;-71
2024/01/18 11:54:37;;;;;;;66.40;40.20;;;;;;;1.64;83.11;98238.08;112860;241;38295;-70
2024/01/18 11:57:13;;;;;;;66.80;39.00;;;;;;;1.63;82.79;98249.64;112844;241;39345;-71
2024/01/18 11:59:48;;;;;;;67.00;42.10;;;;;;;1.61;82.73;98252.45;112851;241;38237;-70